sensor_id;sensor_type;location;lat;lon;timestamp;pressure;altitude;pressure_sealevel;temperature;humidity
58243;BME280;50118;53.232;8.252;2023-05-20T00:00:29;102549.72;;;10.08;100.00
58243;BME280;50118;53.232;8.252;2023-05-20T00:02:55;102550.84;;;10.04;100.00
58243;BME280;50118;53.232;8.252;2023-05-20T00:05:22;102542.88;;;10.04;100.00
58243;BME280;50118;53.232;8.252;2023-05-20T00:07:47;102547.16;;;10.07;100.00
58243;BME280;50118;53.232;8.252;2023-05-20T00:10:12;102546.31;;;10.06;100.00
58243;BME280;50118;53.232;8.252;2023-05-20T00:12:38;102548.75;;;10.09;100.00
58243;BME280;50118;53.232;8.252;2023-05-20T00:15:04;102552.75;;;10.17;100.00
58243;BME280;50118;53.232;8.252;2023-05-20T00:17:30;102544.69;;;10.18;100.00
58243;BME280;50118;53.232;8.252;2023-05-20T00:19:55;102534.47;;;10.25;100.00
58243;BME280;50118;53.232;8.252;2023-05-20T00:22:21;102547.00;;;10.23;100.00
58243;BME280;50118;53.232;8.252;2023-05-20T00:24:46;102540.00;;;10.22;100.00
58243;BME280;50118;53.232;8.252;2023-05-20T00:27:12;102541.69;;;10.23;100.00
58243;BME280;50118;53.232;8.252;2023-05-20T00:29:37;102545.13;;;10.25;100.00
58243;BME280;50118;53.232;8.252;2023-05-20T00:32:03;102539.59;;;10.28;100.00
58243;BME280;50118;53.232;8.252;2023-05-20T00:34:28;102543.72;;;10.34;100.00
58243;BME280;50118;53.232;8.252;2023-05-20T00:36:53;102551.38;;;10.38;100.00
58243;BME280;50118;53.232;8.252;2023-05-20T00:39:19;102547.38;;;10.45;100.00
58243;BME280;50118;53.232;8.252;2023-05-20T00:41:44;102542.25;;;10.42;100.00
58243;BME280;50118;53.232;8.252;2023-05-20T00:44:09;102541.00;;;10.48;100.00
58243;BME280;50118;53.232;8.252;2023-05-20T00:46:35;102547.72;;;10.54;100.00
58243;BME280;50118;53.232;8.252;2023-05-20T00:49:01;102542.91;;;10.46;100.00
58243;BME280;50118;53.232;8.252;2023-05-20T00:51:26;102540.16;;;10.48;100.00
58243;BME280;50118;53.232;8.252;2023-05-20T00:53:52;102551.56;;;10.50;100.00
58243;BME280;50118;53.232;8.252;2023-05-20T00:56:19;102541.75;;;10.50;100.00
58243;BME280;50118;53.232;8.252;2023-05-20T00:58:46;102539.72;;;10.54;100.00
58243;BME280;50118;53.232;8.252;2023-05-20T01:01:12;102543.84;;;10.72;97.95
58243;BME280;50118;53.232;8.252;2023-05-20T01:03:38;102539.69;;;10.68;96.95
58243;BME280;50118;53.232;8.252;2023-05-20T01:06:04;102544.03;;;10.69;96.20
58243;BME280;50118;53.232;8.252;2023-05-20T01:08:30;102541.19;;;10.72;95.79
58243;BME280;50118;53.232;8.252;2023-05-20T01:11:05;102546.50;;;10.72;94.66
58243;BME280;50118;53.232;8.252;2023-05-20T01:13:38;102541.72;;;10.77;93.42
58243;BME280;50118;53.232;8.252;2023-05-20T01:16:06;102543.63;;;10.75;93.52
58243;BME280;50118;53.232;8.252;2023-05-20T01:18:33;102537.56;;;10.73;92.67
58243;BME280;50118;53.232;8.252;2023-05-20T01:21:01;102540.44;;;10.70;92.38
58243;BME280;50118;53.232;8.252;2023-05-20T01:23:39;102536.59;;;10.74;90.27
58243;BME280;50118;53.232;8.252;2023-05-20T01:26:05;102543.63;;;10.75;90.44
58243;BME280;50118;53.232;8.252;2023-05-20T01:28:32;102539.06;;;10.77;89.62
58243;BME280;50118;53.232;8.252;2023-05-20T01:31:00;102534.91;;;10.73;90.31
58243;BME280;50118;53.232;8.252;2023-05-20T01:33:27;102543.38;;;10.65;90.08
58243;BME280;50118;53.232;8.252;2023-05-20T01:35:53;102544.84;;;10.57;90.60
58243;BME280;50118;53.232;8.252;2023-05-20T01:38:20;102540.25;;;10.46;90.10
58243;BME280;50118;53.232;8.252;2023-05-20T01:40:47;102532.84;;;10.37;89.69
58243;BME280;50118;53.232;8.252;2023-05-20T01:43:15;102554.94;;;10.39;88.68
58243;BME280;50118;53.232;8.252;2023-05-20T01:45:41;102544.91;;;10.28;89.74
58243;BME280;50118;53.232;8.252;2023-05-20T01:48:09;102544.81;;;10.29;88.29
58243;BME280;50118;53.232;8.252;2023-05-20T01:50:36;102543.13;;;10.28;87.68
58243;BME280;50118;53.232;8.252;2023-05-20T01:53:01;102530.56;;;10.16;88.79
58243;BME280;50118;53.232;8.252;2023-05-20T01:55:27;102545.25;;;10.09;87.71
58243;BME280;50118;53.232;8.252;2023-05-20T01:57:52;102533.94;;;10.05;87.37
58243;BME280;50118;53.232;8.252;2023-05-20T02:00:18;102539.06;;;10.08;86.48
58243;BME280;50118;53.232;8.252;2023-05-20T02:02:43;102543.19;;;10.00;87.31
58243;BME280;50118;53.232;8.252;2023-05-20T02:05:09;102532.16;;;9.91;86.67
58243;BME280;50118;53.232;8.252;2023-05-20T02:07:34;102525.00;;;9.92;86.30
58243;BME280;50118;53.232;8.252;2023-05-20T02:10:00;102531.69;;;9.85;86.41
58243;BME280;50118;53.232;8.252;2023-05-20T02:12:25;102532.94;;;9.79;86.67
58243;BME280;50118;53.232;8.252;2023-05-20T02:14:50;102531.81;;;9.69;88.38
58243;BME280;50118;53.232;8.252;2023-05-20T02:17:16;102534.09;;;9.61;88.75
58243;BME280;50118;53.232;8.252;2023-05-20T02:19:43;102539.38;;;9.46;89.79
58243;BME280;50118;53.232;8.252;2023-05-20T02:22:08;102537.78;;;9.44;90.71
58243;BME280;50118;53.232;8.252;2023-05-20T02:24:34;102534.50;;;9.24;90.97
58243;BME280;50118;53.232;8.252;2023-05-20T02:27:00;102537.56;;;9.32;89.85
58243;BME280;50118;53.232;8.252;2023-05-20T02:29:25;102535.75;;;9.33;90.33
58243;BME280;50118;53.232;8.252;2023-05-20T02:31:51;102530.34;;;9.20;92.53
58243;BME280;50118;53.232;8.252;2023-05-20T02:34:17;102535.16;;;9.13;93.21
58243;BME280;50118;53.232;8.252;2023-05-20T02:36:42;102537.25;;;9.08;95.10
58243;BME280;50118;53.232;8.252;2023-05-20T02:39:08;102545.47;;;9.04;94.54
58243;BME280;50118;53.232;8.252;2023-05-20T02:41:33;102533.69;;;8.93;95.72
58243;BME280;50118;53.232;8.252;2023-05-20T02:43:58;102532.00;;;8.92;95.77
58243;BME280;50118;53.232;8.252;2023-05-20T02:46:24;102539.91;;;8.78;96.27
58243;BME280;50118;53.232;8.252;2023-05-20T02:48:50;102535.34;;;8.80;96.67
58243;BME280;50118;53.232;8.252;2023-05-20T02:51:15;102530.75;;;8.68;99.15
58243;BME280;50118;53.232;8.252;2023-05-20T02:53:40;102543.91;;;8.55;100.00
58243;BME280;50118;53.232;8.252;2023-05-20T02:56:06;102532.41;;;8.38;100.00
58243;BME280;50118;53.232;8.252;2023-05-20T02:58:33;102532.06;;;8.29;100.00
58243;BME280;50118;53.232;8.252;2023-05-20T03:01:00;102533.44;;;8.20;100.00
58243;BME280;50118;53.232;8.252;2023-05-20T03:03:26;102535.84;;;8.25;100.00
58243;BME280;50118;53.232;8.252;2023-05-20T03:05:52;102527.78;;;8.10;100.00
58243;BME280;50118;53.232;8.252;2023-05-20T03:08:21;102525.41;;;8.06;100.00
58243;BME280;50118;53.232;8.252;2023-05-20T03:10:47;102528.06;;;8.06;100.00
58243;BME280;50118;53.232;8.252;2023-05-20T03:13:12;102530.19;;;7.99;100.00
58243;BME280;50118;53.232;8.252;2023-05-20T03:15:40;102520.59;;;7.96;100.00
58243;BME280;50118;53.232;8.252;2023-05-20T03:18:06;102530.44;;;7.94;100.00
58243;BME280;50118;53.232;8.252;2023-05-20T03:20:33;102525.03;;;7.96;100.00
58243;BME280;50118;53.232;8.252;2023-05-20T03:23:01;102526.75;;;7.97;100.00
58243;BME280;50118;53.232;8.252;2023-05-20T03:25:26;102536.66;;;7.93;100.00
58243;BME280;50118;53.232;8.252;2023-05-20T03:27:51;102532.41;;;7.91;100.00
58243;BME280;50118;53.232;8.252;2023-05-20T03:30:17;102534.13;;;7.92;100.00
58243;BME280;50118;53.232;8.252;2023-05-20T03:32:43;102535.06;;;7.91;100.00
58243;BME280;50118;53.232;8.252;2023-05-20T03:35:08;102536.06;;;7.88;100.00
58243;BME280;50118;53.232;8.252;2023-05-20T03:37:34;102533.50;;;7.86;100.00
58243;BME280;50118;53.232;8.252;2023-05-20T03:40:00;102535.06;;;7.91;100.00
58243;BME280;50118;53.232;8.252;2023-05-20T03:42:25;102541.13;;;7.93;100.00
58243;BME280;50118;53.232;8.252;2023-05-20T03:44:50;102537.53;;;7.94;100.00
58243;BME280;50118;53.232;8.252;2023-05-20T03:47:16;102538.47;;;7.93;100.00
58243;BME280;50118;53.232;8.252;2023-05-20T03:49:42;102543.53;;;7.97;100.00
58243;BME280;50118;53.232;8.252;2023-05-20T03:52:08;102541.47;;;8.02;100.00
58243;BME280;50118;53.232;8.252;2023-05-20T03:54:33;102539.59;;;8.04;100.00
58243;BME280;50118;53.232;8.252;2023-05-20T03:57:00;102539.44;;;8.08;100.00
58243;BME280;50118;53.232;8.252;2023-05-20T03:59:27;102542.16;;;8.06;100.00
58243;BME280;50118;53.232;8.252;2023-05-20T04:01:52;102545.44;;;8.11;100.00
58243;BME280;50118;53.232;8.252;2023-05-20T04:04:18;102542.00;;;8.09;100.00
58243;BME280;50118;53.232;8.252;2023-05-20T04:06:43;102538.47;;;8.09;100.00
58243;BME280;50118;53.232;8.252;2023-05-20T04:09:09;102540.72;;;8.16;100.00
58243;BME280;50118;53.232;8.252;2023-05-20T04:11:35;102542.59;;;8.30;100.00
58243;BME280;50118;53.232;8.252;2023-05-20T04:14:00;102541.38;;;8.36;99.28
58243;BME280;50118;53.232;8.252;2023-05-20T04:16:26;102541.50;;;8.50;98.88
58243;BME280;50118;53.232;8.252;2023-05-20T04:18:54;102536.47;;;8.76;96.95
58243;BME280;50118;53.232;8.252;2023-05-20T04:21:20;102543.97;;;9.00;94.85
58243;BME280;50118;53.232;8.252;2023-05-20T04:23:45;102536.75;;;9.02;93.29
58243;BME280;50118;53.232;8.252;2023-05-20T04:26:11;102542.88;;;9.18;91.30
58243;BME280;50118;53.232;8.252;2023-05-20T04:28:37;102537.91;;;9.12;90.77
58243;BME280;50118;53.232;8.252;2023-05-20T04:31:03;102539.28;;;9.33;88.96
58243;BME280;50118;53.232;8.252;2023-05-20T04:33:29;102541.78;;;9.65;87.25
58243;BME280;50118;53.232;8.252;2023-05-20T04:35:56;102538.16;;;9.81;85.03
58243;BME280;50118;53.232;8.252;2023-05-20T04:38:23;102539.97;;;9.95;84.63
58243;BME280;50118;53.232;8.252;2023-05-20T04:40:54;102537.19;;;10.52;82.01
58243;BME280;50118;53.232;8.252;2023-05-20T04:43:23;102542.59;;;10.78;81.49
58243;BME280;50118;53.232;8.252;2023-05-20T04:45:49;102531.34;;;11.00;76.85
58243;BME280;50118;53.232;8.252;2023-05-20T04:48:14;102534.22;;;11.61;73.25
58243;BME280;50118;53.232;8.252;2023-05-20T04:50:39;102540.97;;;11.54;74.60
58243;BME280;50118;53.232;8.252;2023-05-20T04:53:06;102536.47;;;11.80;72.70
58243;BME280;50118;53.232;8.252;2023-05-20T04:55:33;102531.25;;;11.53;73.42
58243;BME280;50118;53.232;8.252;2023-05-20T04:58:02;102531.13;;;11.93;70.65
58243;BME280;50118;53.232;8.252;2023-05-20T05:00:28;102531.94;;;12.55;68.45
58243;BME280;50118;53.232;8.252;2023-05-20T05:02:54;102534.59;;;12.43;69.57
58243;BME280;50118;53.232;8.252;2023-05-20T05:05:20;102530.69;;;12.96;67.25
58243;BME280;50118;53.232;8.252;2023-05-20T05:07:53;102541.97;;;13.35;66.70
58243;BME280;50118;53.232;8.252;2023-05-20T05:10:19;102539.41;;;14.12;62.77
58243;BME280;50118;53.232;8.252;2023-05-20T05:12:46;102544.69;;;13.57;62.56
58243;BME280;50118;53.232;8.252;2023-05-20T05:15:12;102541.44;;;13.30;63.85
58243;BME280;50118;53.232;8.252;2023-05-20T05:17:37;102533.84;;;13.59;64.01
58243;BME280;50118;53.232;8.252;2023-05-20T05:20:03;102542.34;;;13.53;62.09
58243;BME280;50118;53.232;8.252;2023-05-20T05:22:38;102547.06;;;12.91;65.53
58243;BME280;50118;53.232;8.252;2023-05-20T05:25:06;102542.56;;;14.06;61.51
58243;BME280;50118;53.232;8.252;2023-05-20T05:27:32;102543.97;;;14.33;59.22
58243;BME280;50118;53.232;8.252;2023-05-20T05:29:57;102542.72;;;14.48;60.33
58243;BME280;50118;53.232;8.252;2023-05-20T05:32:32;102544.53;;;14.04;62.12
58243;BME280;50118;53.232;8.252;2023-05-20T05:35:07;102540.28;;;13.56;62.91
58243;BME280;50118;53.232;8.252;2023-05-20T05:37:33;102543.28;;;14.96;58.53
58243;BME280;50118;53.232;8.252;2023-05-20T05:40:22;102533.50;;;15.98;55.75
58243;BME280;50118;53.232;8.252;2023-05-20T05:43:00;102531.97;;;15.34;57.12
58243;BME280;50118;53.232;8.252;2023-05-20T05:45:29;102534.03;;;15.30;58.27
58243;BME280;50118;53.232;8.252;2023-05-20T05:47:55;102528.25;;;16.96;52.13
58243;BME280;50118;53.232;8.252;2023-05-20T05:50:24;102533.09;;;17.77;49.39
58243;BME280;50118;53.232;8.252;2023-05-20T05:53:03;102548.69;;;17.83;49.85
58243;BME280;50118;53.232;8.252;2023-05-20T05:55:47;102543.94;;;15.82;54.60
58243;BME280;50118;53.232;8.252;2023-05-20T05:58:28;102545.34;;;16.36;52.22
58243;BME280;50118;53.232;8.252;2023-05-20T06:01:00;102542.06;;;16.23;53.32
58243;BME280;50118;53.232;8.252;2023-05-20T06:03:26;102550.25;;;15.50;56.97
58243;BME280;50118;53.232;8.252;2023-05-20T06:05:51;102541.88;;;13.70;63.20
58243;BME280;50118;53.232;8.252;2023-05-20T06:08:17;102542.56;;;14.93;61.36
58243;BME280;50118;53.232;8.252;2023-05-20T06:10:49;102539.91;;;15.66;58.83
58243;BME280;50118;53.232;8.252;2023-05-20T06:13:18;102538.91;;;15.16;60.54
58243;BME280;50118;53.232;8.252;2023-05-20T06:15:44;102529.09;;;16.57;56.22
58243;BME280;50118;53.232;8.252;2023-05-20T06:18:14;102528.69;;;15.92;56.82
58243;BME280;50118;53.232;8.252;2023-05-20T06:20:56;102533.47;;;17.54;51.93
58243;BME280;50118;53.232;8.252;2023-05-20T06:23:25;102528.31;;;16.06;55.89
58243;BME280;50118;53.232;8.252;2023-05-20T06:25:57;102538.47;;;17.49;52.70
58243;BME280;50118;53.232;8.252;2023-05-20T06:28:24;102531.16;;;16.34;55.71
58243;BME280;50118;53.232;8.252;2023-05-20T06:30:50;102542.88;;;17.41;52.86
58243;BME280;50118;53.232;8.252;2023-05-20T06:33:17;102533.47;;;15.58;58.35
58243;BME280;50118;53.232;8.252;2023-05-20T06:35:43;102530.75;;;16.29;56.50
58243;BME280;50118;53.232;8.252;2023-05-20T06:38:12;102530.59;;;16.31;57.30
58243;BME280;50118;53.232;8.252;2023-05-20T06:40:37;102527.16;;;15.38;60.07
58243;BME280;50118;53.232;8.252;2023-05-20T06:43:03;102537.16;;;15.36;63.55
58243;BME280;50118;53.232;8.252;2023-05-20T06:45:37;102545.31;;;17.34;55.67
58243;BME280;50118;53.232;8.252;2023-05-20T06:48:06;102537.25;;;17.24;55.64
58243;BME280;50118;53.232;8.252;2023-05-20T06:50:32;102530.75;;;17.07;57.08
58243;BME280;50118;53.232;8.252;2023-05-20T06:53:01;102533.03;;;17.22;55.71
58243;BME280;50118;53.232;8.252;2023-05-20T06:55:32;102532.44;;;16.30;59.27
58243;BME280;50118;53.232;8.252;2023-05-20T06:57:58;102527.53;;;17.88;54.49
58243;BME280;50118;53.232;8.252;2023-05-20T07:00:48;102525.72;;;16.85;56.19
58243;BME280;50118;53.232;8.252;2023-05-20T07:04:05;102526.91;;;17.20;56.86
58243;BME280;50118;53.232;8.252;2023-05-20T07:07:13;102521.84;;;17.07;56.05
58243;BME280;50118;53.232;8.252;2023-05-20T07:09:50;102511.91;;;16.10;59.67
58243;BME280;50118;53.232;8.252;2023-05-20T07:12:24;102504.88;;;17.44;56.22
58243;BME280;50118;53.232;8.252;2023-05-20T07:15:04;102501.28;;;17.81;53.85
58243;BME280;50118;53.232;8.252;2023-05-20T07:17:33;102507.75;;;17.32;55.36
58243;BME280;50118;53.232;8.252;2023-05-20T07:20:07;102504.75;;;17.45;55.27
58243;BME280;50118;53.232;8.252;2023-05-20T07:22:36;102501.59;;;16.73;57.61
58243;BME280;50118;53.232;8.252;2023-05-20T07:25:05;102499.88;;;17.11;57.49
58243;BME280;50118;53.232;8.252;2023-05-20T07:28:29;102498.75;;;16.75;59.71
58243;BME280;50118;53.232;8.252;2023-05-20T07:42:03;102496.25;;;17.40;58.20
58243;BME280;50118;53.232;8.252;2023-05-20T07:47:55;102489.69;;;17.05;58.93
58243;BME280;50118;53.232;8.252;2023-05-20T07:50:40;102480.13;;;17.58;62.03
58243;BME280;50118;53.232;8.252;2023-05-20T07:53:39;102478.28;;;18.14;57.89
58243;BME280;50118;53.232;8.252;2023-05-20T07:59:20;102480.69;;;17.34;62.38
58243;BME280;50118;53.232;8.252;2023-05-20T08:12:47;102476.03;;;18.63;55.84
58243;BME280;50118;53.232;8.252;2023-05-20T08:15:43;102482.53;;;17.33;58.78
58243;BME280;50118;53.232;8.252;2023-05-20T08:18:31;102471.13;;;18.41;55.87
58243;BME280;50118;53.232;8.252;2023-05-20T08:20:58;102472.28;;;18.56;55.73
58243;BME280;50118;53.232;8.252;2023-05-20T08:23:26;102468.34;;;17.97;58.63
58243;BME280;50118;53.232;8.252;2023-05-20T08:26:04;102472.25;;;17.47;60.52
58243;BME280;50118;53.232;8.252;2023-05-20T08:28:38;102463.72;;;17.51;58.58
58243;BME280;50118;53.232;8.252;2023-05-20T08:31:04;102459.38;;;18.50;56.29
58243;BME280;50118;53.232;8.252;2023-05-20T08:33:33;102469.66;;;17.55;57.90
58243;BME280;50118;53.232;8.252;2023-05-20T08:36:22;102451.91;;;18.62;53.28
58243;BME280;50118;53.232;8.252;2023-05-20T08:38:53;102448.31;;;18.17;56.56
58243;BME280;50118;53.232;8.252;2023-05-20T08:41:20;102455.63;;;18.07;59.29
58243;BME280;50118;53.232;8.252;2023-05-20T08:43:47;102452.53;;;18.20;57.49
58243;BME280;50118;53.232;8.252;2023-05-20T08:48:59;102430.66;;;19.54;53.76
58243;BME280;50118;53.232;8.252;2023-05-20T08:51:26;102439.63;;;19.20;55.84
58243;BME280;50118;53.232;8.252;2023-05-20T08:53:52;102433.81;;;18.80;56.69
58243;BME280;50118;53.232;8.252;2023-05-20T08:56:18;102444.00;;;19.13;55.81
58243;BME280;50118;53.232;8.252;2023-05-20T08:58:46;102433.19;;;19.13;58.27
58243;BME280;50118;53.232;8.252;2023-05-20T09:01:12;102425.88;;;19.31;52.41
58243;BME280;50118;53.232;8.252;2023-05-20T09:03:54;102425.81;;;18.71;54.95
58243;BME280;50118;53.232;8.252;2023-05-20T09:06:22;102433.38;;;20.05;48.99
58243;BME280;50118;53.232;8.252;2023-05-20T09:08:48;102432.53;;;20.62;48.66
58243;BME280;50118;53.232;8.252;2023-05-20T09:11:18;102424.97;;;19.65;48.86
58243;BME280;50118;53.232;8.252;2023-05-20T09:13:53;102427.72;;;19.31;51.67
58243;BME280;50118;53.232;8.252;2023-05-20T09:16:18;102423.72;;;20.02;48.03
58243;BME280;50118;53.232;8.252;2023-05-20T09:18:45;102418.16;;;19.10;51.90
58243;BME280;50118;53.232;8.252;2023-05-20T09:21:11;102407.91;;;18.88;54.24
58243;BME280;50118;53.232;8.252;2023-05-20T09:23:36;102413.94;;;19.50;52.27
58243;BME280;50118;53.232;8.252;2023-05-20T09:26:11;102419.44;;;18.72;51.53
58243;BME280;50118;53.232;8.252;2023-05-20T09:28:54;102410.25;;;19.17;52.40
58243;BME280;50118;53.232;8.252;2023-05-20T09:31:40;102406.34;;;19.54;51.70
58243;BME280;50118;53.232;8.252;2023-05-20T09:34:06;102417.56;;;19.25;52.40
58243;BME280;50118;53.232;8.252;2023-05-20T09:36:33;102402.91;;;18.75;54.08
58243;BME280;50118;53.232;8.252;2023-05-20T09:39:00;102404.38;;;18.69;52.79
58243;BME280;50118;53.232;8.252;2023-05-20T09:41:55;102401.16;;;18.65;51.40
58243;BME280;50118;53.232;8.252;2023-05-20T09:44:32;102403.81;;;17.12;55.86
58243;BME280;50118;53.232;8.252;2023-05-20T09:46:59;102393.91;;;17.40;57.28
58243;BME280;50118;53.232;8.252;2023-05-20T09:49:27;102395.69;;;17.22;56.03
58243;BME280;50118;53.232;8.252;2023-05-20T09:51:54;102401.69;;;17.89;55.14
58243;BME280;50118;53.232;8.252;2023-05-20T09:54:52;102383.97;;;18.04;53.14
58243;BME280;50118;53.232;8.252;2023-05-20T09:57:18;102391.63;;;17.63;54.62
58243;BME280;50118;53.232;8.252;2023-05-20T10:00:25;102382.66;;;18.97;51.27
58243;BME280;50118;53.232;8.252;2023-05-20T10:03:05;102380.78;;;20.07;44.10
58243;BME280;50118;53.232;8.252;2023-05-20T10:09:11;102373.53;;;21.53;39.77
58243;BME280;50118;53.232;8.252;2023-05-20T10:19:33;102349.72;;;19.44;42.67
58243;BME280;50118;53.232;8.252;2023-05-20T10:22:07;102369.13;;;20.31;41.03
58243;BME280;50118;53.232;8.252;2023-05-20T10:24:40;102354.75;;;20.64;41.11
58243;BME280;50118;53.232;8.252;2023-05-20T10:27:17;102353.41;;;20.02;43.78
58243;BME280;50118;53.232;8.252;2023-05-20T10:29:56;102348.44;;;19.65;43.25
58243;BME280;50118;53.232;8.252;2023-05-20T10:32:28;102348.31;;;20.15;42.56
58243;BME280;50118;53.232;8.252;2023-05-20T10:37:33;102343.78;;;18.63;47.28
58243;BME280;50118;53.232;8.252;2023-05-20T10:40:06;102332.81;;;18.31;46.41
58243;BME280;50118;53.232;8.252;2023-05-20T10:42:32;102329.91;;;18.06;47.12
58243;BME280;50118;53.232;8.252;2023-05-20T10:44:58;102325.94;;;18.71;45.19
58243;BME280;50118;53.232;8.252;2023-05-20T10:47:26;102320.75;;;19.12;44.27
58243;BME280;50118;53.232;8.252;2023-05-20T10:49:55;102326.81;;;19.73;43.90
58243;BME280;50118;53.232;8.252;2023-05-20T10:52:23;102331.03;;;20.74;41.93
58243;BME280;50118;53.232;8.252;2023-05-20T10:57:18;102319.94;;;20.28;40.85
58243;BME280;50118;53.232;8.252;2023-05-20T10:59:46;102309.31;;;18.49;45.00
58243;BME280;50118;53.232;8.252;2023-05-20T11:02:15;102307.00;;;18.62;46.24
58243;BME280;50118;53.232;8.252;2023-05-20T11:04:44;102305.91;;;18.73;46.14
58243;BME280;50118;53.232;8.252;2023-05-20T11:07:10;102311.44;;;18.98;45.37
58243;BME280;50118;53.232;8.252;2023-05-20T11:09:36;102301.66;;;20.30;42.72
58243;BME280;50118;53.232;8.252;2023-05-20T11:12:02;102313.31;;;20.30;42.67
58243;BME280;50118;53.232;8.252;2023-05-20T11:14:28;102298.91;;;19.56;47.25
58243;BME280;50118;53.232;8.252;2023-05-20T11:17:10;102302.53;;;19.98;45.17
58243;BME280;50118;53.232;8.252;2023-05-20T11:19:38;102285.13;;;19.92;44.01
58243;BME280;50118;53.232;8.252;2023-05-20T11:22:06;102288.91;;;19.23;44.79
58243;BME280;50118;53.232;8.252;2023-05-20T11:24:32;102270.91;;;20.23;43.95
58243;BME280;50118;53.232;8.252;2023-05-20T11:27:01;102273.78;;;19.64;44.11
58243;BME280;50118;53.232;8.252;2023-05-20T11:29:27;102275.97;;;19.52;47.50
58243;BME280;50118;53.232;8.252;2023-05-20T11:31:57;102278.31;;;20.37;44.37
58243;BME280;50118;53.232;8.252;2023-05-20T11:34:24;102275.09;;;19.59;44.93
58243;BME280;50118;53.232;8.252;2023-05-20T11:36:57;102270.06;;;18.89;46.56
58243;BME280;50118;53.232;8.252;2023-05-20T11:39:28;102272.97;;;18.35;49.10
58243;BME280;50118;53.232;8.252;2023-05-20T11:41:58;102274.53;;;17.94;49.79
58243;BME280;50118;53.232;8.252;2023-05-20T11:44:24;102273.50;;;18.13;50.53
58243;BME280;50118;53.232;8.252;2023-05-20T11:46:50;102270.28;;;18.09;49.67
58243;BME280;50118;53.232;8.252;2023-05-20T11:49:16;102271.13;;;18.70;48.28
58243;BME280;50118;53.232;8.252;2023-05-20T11:51:42;102270.84;;;19.24;48.95
58243;BME280;50118;53.232;8.252;2023-05-20T11:54:11;102261.44;;;19.69;46.17
58243;BME280;50118;53.232;8.252;2023-05-20T11:56:37;102262.81;;;19.90;46.24
58243;BME280;50118;53.232;8.252;2023-05-20T11:59:04;102262.28;;;20.75;43.18
58243;BME280;50118;53.232;8.252;2023-05-20T12:01:32;102267.41;;;21.10;41.12
58243;BME280;50118;53.232;8.252;2023-05-20T12:04:10;102265.19;;;21.13;41.35
58243;BME280;50118;53.232;8.252;2023-05-20T12:06:37;102271.06;;;20.21;45.29
58243;BME280;50118;53.232;8.252;2023-05-20T12:09:05;102275.09;;;19.35;46.63
58243;BME280;50118;53.232;8.252;2023-05-20T12:11:35;102264.84;;;18.61;47.79
58243;BME280;50118;53.232;8.252;2023-05-20T12:14:02;102262.47;;;18.58;48.12
58243;BME280;50118;53.232;8.252;2023-05-20T12:16:30;102245.53;;;19.58;47.73
58243;BME280;50118;53.232;8.252;2023-05-20T12:18:56;102258.06;;;18.83;49.86
58243;BME280;50118;53.232;8.252;2023-05-20T12:21:22;102250.13;;;18.21;50.13
58243;BME280;50118;53.232;8.252;2023-05-20T12:23:47;102252.88;;;18.03;52.39
58243;BME280;50118;53.232;8.252;2023-05-20T12:26:25;102259.44;;;17.83;52.50
58243;BME280;50118;53.232;8.252;2023-05-20T12:28:51;102255.44;;;17.87;53.34
58243;BME280;50118;53.232;8.252;2023-05-20T12:31:17;102256.00;;;17.72;53.43
58243;BME280;50118;53.232;8.252;2023-05-20T12:33:42;102255.19;;;17.80;54.58
58243;BME280;50118;53.232;8.252;2023-05-20T12:36:11;102251.41;;;18.09;52.53
58243;BME280;50118;53.232;8.252;2023-05-20T12:38:37;102262.91;;;17.75;54.69
58243;BME280;50118;53.232;8.252;2023-05-20T12:41:02;102253.13;;;17.38;55.21
58243;BME280;50118;53.232;8.252;2023-05-20T12:43:29;102252.22;;;17.47;53.27
58243;BME280;50118;53.232;8.252;2023-05-20T12:45:54;102263.75;;;17.22;56.71
58243;BME280;50118;53.232;8.252;2023-05-20T12:48:20;102264.13;;;17.27;53.94
58243;BME280;50118;53.232;8.252;2023-05-20T12:50:45;102263.59;;;17.23;54.58
58243;BME280;50118;53.232;8.252;2023-05-20T12:53:11;102250.69;;;17.27;54.56
58243;BME280;50118;53.232;8.252;2023-05-20T12:55:36;102245.28;;;17.63;54.52
58243;BME280;50118;53.232;8.252;2023-05-20T12:58:05;102237.22;;;18.07;53.17
58243;BME280;50118;53.232;8.252;2023-05-20T13:00:33;102251.81;;;18.22;52.63
58243;BME280;50118;53.232;8.252;2023-05-20T13:02:59;102242.66;;;17.71;52.60
58243;BME280;50118;53.232;8.252;2023-05-20T13:05:25;102242.69;;;17.35;52.96
58243;BME280;50118;53.232;8.252;2023-05-20T13:07:51;102248.72;;;17.19;54.81
58243;BME280;50118;53.232;8.252;2023-05-20T13:10:17;102246.03;;;17.01;55.22
58243;BME280;50118;53.232;8.252;2023-05-20T13:12:46;102236.91;;;17.66;54.45
58243;BME280;50118;53.232;8.252;2023-05-20T13:15:12;102229.75;;;18.01;53.14
58243;BME280;50118;53.232;8.252;2023-05-20T13:17:39;102229.28;;;18.32;53.91
58243;BME280;50118;53.232;8.252;2023-05-20T13:20:05;102209.16;;;18.95;50.40
58243;BME280;50118;53.232;8.252;2023-05-20T13:22:31;102215.31;;;18.36;52.66
58243;BME280;50118;53.232;8.252;2023-05-20T13:25:00;102212.88;;;18.51;51.83
58243;BME280;50118;53.232;8.252;2023-05-20T13:27:26;102215.00;;;17.87;54.01
58243;BME280;50118;53.232;8.252;2023-05-20T13:29:52;102211.44;;;17.42;53.99
58243;BME280;50118;53.232;8.252;2023-05-20T13:32:17;102202.19;;;16.91;57.17
58243;BME280;50118;53.232;8.252;2023-05-20T13:34:43;102205.56;;;16.93;59.74
58243;BME280;50118;53.232;8.252;2023-05-20T13:37:09;102202.34;;;17.07;56.95
58243;BME280;50118;53.232;8.252;2023-05-20T13:39:34;102201.41;;;16.98;57.14
58243;BME280;50118;53.232;8.252;2023-05-20T13:42:01;102204.97;;;17.35;55.76
58243;BME280;50118;53.232;8.252;2023-05-20T13:44:26;102208.06;;;17.40;55.02
58243;BME280;50118;53.232;8.252;2023-05-20T13:46:52;102196.25;;;17.41;56.40